createdAt,value
2022-08-21T00:00:42.368Z,101065.53
2022-08-21T00:04:57.048Z,101073.22
2022-08-21T00:09:02.892Z,101072.38
2022-08-21T00:13:07.863Z,101064.34
2022-08-21T00:17:09.344Z,101068.03
2022-08-21T00:21:13.518Z,101067.66
2022-08-21T00:25:16.491Z,101068.03
2022-08-21T00:29:21.912Z,101064.84
2022-08-21T00:33:25.154Z,101056.91
2022-08-21T00:37:26.698Z,101070.91
2022-08-21T00:41:38.061Z,101064.09
2022-08-21T00:45:40.719Z,101074.63
2022-08-21T00:49:42.787Z,101064.97
2022-08-21T00:53:50.653Z,101077.00
2022-08-21T00:57:58.015Z,101072.63
2022-08-21T01:01:59.593Z,101065.44
2022-08-21T01:06:01.392Z,101065.44
2022-08-21T01:10:05.554Z,101074.66
2022-08-21T01:14:07.043Z,101073.44
2022-08-21T01:18:10.444Z,101065.03
2022-08-21T01:22:12.015Z,101077.09
2022-08-21T01:26:15.349Z,101071.41
2022-08-21T01:30:22.858Z,101069.47
2022-08-21T01:34:24.492Z,101076.28
2022-08-21T01:38:26.373Z,101076.19
2022-08-21T01:42:29.068Z,101069.88
2022-08-21T01:46:30.715Z,101073.13
2022-08-21T01:50:32.172Z,101091.59
2022-08-21T01:54:34.495Z,101084.41
2022-08-21T01:58:36.468Z,101086.78
2022-08-21T02:02:39.321Z,101092.00
2022-08-21T02:06:40.824Z,101093.19
2022-08-21T02:10:42.357Z,101082.31
2022-08-21T02:14:50.568Z,101073.50
2022-08-21T02:18:52.674Z,101069.13
2022-08-21T02:22:54.938Z,101066.38
2022-08-21T02:26:56.468Z,101066.75
2022-08-21T02:30:58.854Z,101068.75
2022-08-21T02:35:00.339Z,101061.56
2022-08-21T02:39:01.799Z,101067.94
2022-08-21T02:43:05.243Z,101063.56
2022-08-21T02:47:06.735Z,101063.97
2022-08-21T02:51:11.937Z,101070.41
2022-08-21T02:55:13.620Z,101058.75
2022-08-21T02:59:16.477Z,101074.00
2022-08-21T03:03:18.153Z,101077.59
2022-08-21T03:07:19.586Z,101071.59
2022-08-21T03:11:21.808Z,101070.41
2022-08-21T03:15:27.104Z,101059.19
2022-08-21T03:19:28.600Z,101064.38
2022-08-21T03:23:32.561Z,101057.56
2022-08-21T03:27:35.025Z,101062.00
2022-08-21T03:31:36.782Z,101064.34
2022-08-21T03:35:38.218Z,101059.13
2022-08-21T03:39:39.854Z,101069.97
2022-08-21T03:43:41.338Z,101065.94
2022-08-21T03:47:53.402Z,101066.75
2022-08-21T03:51:59.143Z,101065.53
2022-08-21T03:56:01.530Z,101063.91
2022-08-21T04:00:05.562Z,101066.72
2022-08-21T04:04:07.087Z,101074.31
2022-08-21T04:08:09.160Z,101081.91
2022-08-21T04:12:10.765Z,101084.31
2022-08-21T04:16:13.352Z,101093.91
2022-08-21T04:20:16.159Z,101086.28
2022-08-21T04:24:17.629Z,101077.06
2022-08-21T04:28:19.089Z,101074.28
2022-08-21T04:32:26.908Z,101077.47
2022-08-21T04:36:28.362Z,101084.25
2022-08-21T04:40:30.052Z,101079.50
2022-08-21T04:44:31.884Z,101089.00
2022-08-21T04:48:34.061Z,101090.69
2022-08-21T04:52:35.502Z,101091.50
2022-08-21T04:56:43.664Z,101094.16
2022-08-21T05:00:46.193Z,101088.13
2022-08-21T05:04:50.951Z,101092.56
2022-08-21T05:09:01.829Z,101100.22
2022-08-21T05:13:04.237Z,101100.25
2022-08-21T05:17:06.194Z,101107.09
2022-08-21T05:21:07.636Z,101103.50
2022-08-21T05:25:11.032Z,101106.72
2022-08-21T05:29:16.373Z,101101.97
2022-08-21T05:33:17.979Z,101111.56
2022-08-21T05:37:19.379Z,101111.59
2022-08-21T05:41:21.181Z,101114.34
2022-08-21T05:45:43.333Z,101124.38
2022-08-21T05:49:45.638Z,101117.84
2022-08-21T05:53:47.263Z,101121.50
2022-08-21T05:57:49.105Z,101119.88
2022-08-21T06:01:53.704Z,101126.66
2022-08-21T06:05:56.628Z,101129.13
2022-08-21T06:09:58.121Z,101127.09
2022-08-21T06:13:59.949Z,101125.50
2022-08-21T06:18:01.460Z,101121.16
2022-08-21T06:22:03.554Z,101117.94
2022-08-21T06:26:07.233Z,101127.09
2022-08-21T06:30:09.366Z,101121.94
2022-08-21T06:34:11.690Z,101129.91
2022-08-21T06:38:13.519Z,101137.16
2022-08-21T06:42:18.701Z,101139.97
2022-08-21T06:46:20.256Z,101139.28
2022-08-21T06:50:21.804Z,101135.63
2022-08-21T06:54:23.315Z,101131.69
2022-08-21T06:58:24.802Z,101126.50
2022-08-21T07:02:26.437Z,101128.50
2022-08-21T07:06:27.917Z,101122.44
2022-08-21T07:10:30.574Z,101118.88
2022-08-21T07:14:32.456Z,101125.28
2022-08-21T07:18:33.881Z,101130.84
2022-08-21T07:22:37.312Z,101121.22
2022-08-21T07:26:39.300Z,101123.63
2022-08-21T07:30:40.750Z,101118.00
2022-08-21T07:34:43.314Z,101119.19
2022-08-21T07:38:44.865Z,101111.50
2022-08-21T07:42:48.187Z,101119.50
2022-08-21T07:46:49.657Z,101120.16
2022-08-21T07:50:52.055Z,101120.72
2022-08-21T07:54:54.265Z,101116.50
2022-08-21T07:58:56.728Z,101118.03
2022-08-21T08:02:58.613Z,101112.06
2022-08-21T08:07:00.182Z,101115.94
2022-08-21T08:11:02.471Z,101105.00
2022-08-21T08:15:08.620Z,101111.63
2022-08-21T08:19:10.121Z,101114.97
2022-08-21T08:23:13.427Z,101118.88
2022-08-21T08:27:15.720Z,101124.66
2022-08-21T08:31:17.255Z,101121.63
2022-08-21T08:35:18.989Z,101125.72
2022-08-21T08:39:29.616Z,101127.97
2022-08-21T08:43:34.130Z,101137.19
2022-08-21T08:47:40.197Z,101131.00
2022-08-21T08:51:53.352Z,101126.00
2022-08-21T08:55:54.936Z,101129.94
2022-08-21T08:59:58.941Z,101112.34
2022-08-21T09:04:01.823Z,101109.88
2022-08-21T09:08:09.496Z,101105.06
2022-08-21T09:12:31.532Z,101114.56
2022-08-21T09:16:55.401Z,101116.19
2022-08-21T09:20:57.331Z,101119.06
2022-08-21T09:25:19.836Z,101119.34
2022-08-21T09:29:26.958Z,101115.06
2022-08-21T09:33:29.264Z,101110.75
2022-08-21T09:37:35.316Z,101112.22
2022-08-21T09:41:38.142Z,101113.91
2022-08-21T09:45:42.785Z,101109.09
2022-08-21T09:49:44.684Z,101100.91
2022-08-21T09:53:50.841Z,101113.03
2022-08-21T09:57:52.396Z,101110.34
2022-08-21T10:01:55.346Z,101105.81
2022-08-21T10:06:06.224Z,101114.50
2022-08-21T10:10:23.549Z,101113.19
2022-08-21T10:14:41.183Z,101117.50
2022-08-21T10:18:50.370Z,101103.19
2022-08-21T10:23:20.409Z,101105.56
2022-08-21T10:27:52.535Z,101108.66
2022-08-21T10:32:30.017Z,101113.81
2022-08-21T10:36:46.351Z,101111.25
2022-08-21T10:41:01.374Z,101108.50
2022-08-21T10:45:16.036Z,101105.28
2022-08-21T10:49:30.750Z,101124.00
2022-08-21T10:53:55.483Z,101111.16
2022-08-21T10:58:21.872Z,101106.78
2022-08-21T11:02:32.839Z,101109.94
2022-08-21T11:06:37.985Z,101108.25
2022-08-21T11:10:54.218Z,101106.63
2022-08-21T11:15:05.925Z,101113.00
2022-08-21T11:19:23.368Z,101099.38
2022-08-21T11:23:48.369Z,101099.50
2022-08-21T11:27:59.462Z,101101.06
2022-08-21T11:32:41.103Z,101098.94
2022-08-21T11:37:02.637Z,101096.97
2022-08-21T11:41:30.843Z,101098.97
2022-08-21T11:45:51.031Z,101104.22
2022-08-21T11:50:34.835Z,101100.75
2022-08-21T11:54:47.217Z,101093.81
2022-08-21T11:58:52.594Z,101080.41
2022-08-21T12:02:59.939Z,101097.56
2022-08-21T12:07:30.003Z,101088.56
2022-08-21T12:11:31.592Z,101087.03
2022-08-21T12:15:33.057Z,101085.63
2022-08-21T12:19:35.814Z,101078.13
2022-08-21T12:23:59.934Z,101073.31
2022-08-21T12:28:10.505Z,101067.28
2022-08-21T12:32:11.907Z,101077.81
2022-08-21T12:36:22.114Z,101072.00
2022-08-21T12:40:32.400Z,101075.25
2022-08-21T12:44:43.881Z,101062.66
2022-08-21T12:48:52.297Z,101061.94
2022-08-21T12:53:06.805Z,101056.06
2022-08-21T12:57:31.380Z,101054.63
2022-08-21T13:01:41.995Z,101056.38
2022-08-21T13:05:43.709Z,101053.22
2022-08-21T13:09:51.793Z,101054.31
2022-08-21T13:13:54.319Z,101050.44
2022-08-21T13:18:02.586Z,101055.75
2022-08-21T13:22:34.942Z,101051.66
2022-08-21T13:26:26.148Z,101048.41
2022-08-21T13:30:27.651Z,101050.69
2022-08-21T13:34:37.598Z,101056.69
2022-08-21T13:38:42.512Z,101052.66
2022-08-21T13:42:45.898Z,101053.00
2022-08-21T13:46:48.849Z,101054.66
2022-08-21T13:50:52.646Z,101051.16
2022-08-21T13:55:10.435Z,101047.53
2022-08-21T13:59:25.661Z,101057.03
2022-08-21T14:03:33.657Z,101047.34
2022-08-21T14:07:40.206Z,101047.34
2022-08-21T14:11:41.889Z,101040.78
2022-08-21T14:15:44.448Z,101047.41
2022-08-21T14:19:48.695Z,101037.75
2022-08-21T14:24:05.618Z,101046.59
2022-08-21T14:28:28.112Z,101039.91
2022-08-21T14:32:37.380Z,101036.66
2022-08-21T14:36:46.191Z,101033.47
2022-08-21T14:40:53.563Z,101035.38
2022-08-21T14:45:00.811Z,101029.34
2022-08-21T14:49:03.980Z,101037.53
2022-08-21T14:53:11.312Z,101038.38
2022-08-21T14:57:13.782Z,101030.31
2022-08-21T15:01:18.122Z,101032.66
2022-08-21T15:05:24.706Z,101036.84
2022-08-21T15:09:34.720Z,101034.41
2022-08-21T15:13:37.087Z,101030.31
2022-08-21T15:17:38.597Z,101039.25
2022-08-21T15:21:41.245Z,101037.81
2022-08-21T15:25:44.999Z,101033.31
2022-08-21T15:29:46.476Z,101026.72
2022-08-21T15:33:47.964Z,101025.78
2022-08-21T15:37:49.524Z,101031.88
2022-08-21T15:41:51.076Z,101021.06
2022-08-21T15:45:52.815Z,101027.31
2022-08-21T15:49:54.332Z,101032.13
2022-08-21T15:53:55.875Z,101027.31
2022-08-21T15:57:59.216Z,101029.41
2022-08-21T16:02:02.392Z,101026.22
2022-08-21T16:06:04.136Z,101021.66
2022-08-21T16:10:07.323Z,101019.34
2022-08-21T16:14:08.839Z,101032.56
2022-08-21T16:18:11.052Z,101015.97
2022-08-21T16:22:12.516Z,101014.16
2022-08-21T16:26:18.559Z,101017.16
2022-08-21T16:30:21.400Z,101022.84
2022-08-21T16:34:22.957Z,101021.34
2022-08-21T16:38:24.438Z,101023.94
2022-08-21T16:42:26.786Z,101023.03
2022-08-21T16:46:31.555Z,101027.88
2022-08-21T16:50:33.097Z,101024.28
2022-08-21T16:54:34.652Z,101017.06
2022-08-21T16:58:39.855Z,101012.59
2022-08-21T17:02:48.062Z,101016.41
2022-08-21T17:06:49.548Z,101022.63
2022-08-21T17:10:51.468Z,101017.50
2022-08-21T17:14:52.918Z,101022.19
2022-08-21T17:18:54.668Z,101018.41
2022-08-21T17:22:56.878Z,101018.28
2022-08-21T17:26:59.477Z,101011.53
2022-08-21T17:31:02.455Z,101018.56
2022-08-21T17:35:12.421Z,101019.28
2022-08-21T17:39:21.982Z,101019.84
2022-08-21T17:43:25.192Z,101024.66
2022-08-21T17:47:26.994Z,101019.97
2022-08-21T17:51:28.821Z,101021.81
2022-08-21T17:55:31.309Z,101027.78
2022-08-21T17:59:33.167Z,101024.03
2022-08-21T18:03:38.434Z,101027.66
2022-08-21T18:07:41.328Z,101024.50
2022-08-21T18:11:43.695Z,101029.09
2022-08-21T18:15:49.723Z,101036.31
2022-08-21T18:19:51.168Z,101038.06
2022-08-21T18:23:55.516Z,101029.03
2022-08-21T18:27:57.169Z,101046.56
2022-08-21T18:31:58.762Z,101043.75
2022-08-21T18:36:00.216Z,101047.31
2022-08-21T18:40:08.694Z,101039.16
2022-08-21T18:44:12.095Z,101044.75
2022-08-21T18:48:15.828Z,101048.16
2022-08-21T18:52:20.416Z,101052.78
2022-08-21T18:56:22.183Z,101050.53
2022-08-21T19:00:37.711Z,101037.34
2022-08-21T19:04:48.072Z,101046.72
2022-08-21T19:08:50.106Z,101049.97
2022-08-21T19:12:51.926Z,101049.16
2022-08-21T19:16:53.453Z,101057.28
2022-08-21T19:20:55.377Z,101055.03
2022-08-21T19:24:58.901Z,101051.81
2022-08-21T19:29:05.478Z,101050.66
2022-08-21T19:33:07.111Z,101052.00
2022-08-21T19:37:12.058Z,101053.06
2022-08-21T19:41:16.073Z,101051.97
2022-08-21T19:45:17.839Z,101058.16
2022-08-21T19:49:33.387Z,101051.03
2022-08-21T19:53:35.022Z,101060.34
2022-08-21T19:57:38.553Z,101054.84
2022-08-21T20:01:40.191Z,101048.06
2022-08-21T20:05:44.115Z,101062.53
2022-08-21T20:09:45.539Z,101062.13
2022-08-21T20:13:51.765Z,101065.41
2022-08-21T20:17:54.260Z,101059.34
2022-08-21T20:21:58.230Z,101058.19
2022-08-21T20:26:00.530Z,101064.66
2022-08-21T20:30:05.621Z,101057.00
2022-08-21T20:34:07.246Z,101058.28
2022-08-21T20:38:08.781Z,101062.31
2022-08-21T20:42:11.176Z,101061.13
2022-08-21T20:46:16.362Z,101063.53
2022-08-21T20:50:24.830Z,101060.34
2022-08-21T20:54:45.157Z,101059.94
2022-08-21T20:59:03.185Z,101076.72
2022-08-21T21:03:12.133Z,101068.28
2022-08-21T21:07:21.060Z,101065.09
2022-08-21T21:11:36.082Z,101062.69
2022-08-21T21:15:43.598Z,101063.47
2022-08-21T21:19:51.506Z,101070.75
2022-08-21T21:24:16.079Z,101072.72
2022-08-21T21:28:30.293Z,101072.72
2022-08-21T21:32:31.902Z,101076.38
2022-08-21T21:36:58.923Z,101070.78
2022-08-21T21:41:17.070Z,101069.19
2022-08-21T21:45:26.533Z,101070.78
2022-08-21T21:49:39.298Z,101078.81
2022-08-21T21:53:59.330Z,101081.63
2022-08-21T21:58:27.416Z,101082.41
2022-08-21T22:02:56.909Z,101086.00
2022-08-21T22:07:09.349Z,101088.81
2022-08-21T22:11:24.469Z,101089.97
2022-08-21T22:15:30.988Z,101092.72
2022-08-21T22:19:40.341Z,101088.28
2022-08-21T22:23:52.604Z,101085.09
2022-08-21T22:28:11.420Z,101088.66
2022-08-21T22:32:39.664Z,101087.00
2022-08-21T22:41:28.642Z,101090.53
2022-08-21T22:45:33.221Z,101095.66
2022-08-21T22:49:47.278Z,101090.78
2022-08-21T22:53:55.237Z,101089.53
2022-08-21T22:58:23.901Z,101092.28
2022-08-21T23:02:30.939Z,101099.06
2022-08-21T23:06:32.301Z,101091.44
2022-08-21T23:10:40.824Z,101097.00
2022-08-21T23:14:42.975Z,101093.38
2022-08-21T23:19:02.673Z,101094.53
2022-08-21T23:23:23.600Z,101088.09
2022-08-21T23:27:48.206Z,101095.63
2022-08-21T23:32:02.902Z,101101.63
2022-08-21T23:36:29.743Z,101089.97
2022-08-21T23:40:51.622Z,101091.16
2022-08-21T23:45:14.104Z,101087.56
2022-08-21T23:49:44.175Z,101099.53
2022-08-21T23:54:00.898Z,101090.72
2022-08-21T23:58:26.668Z,101090.38
